createdAt,value
2022-08-30T00:01:45.563Z,10.52
2022-08-30T00:04:12.283Z,9.65
2022-08-30T00:06:38.788Z,8.82
2022-08-30T00:09:05.541Z,8.82
2022-08-30T00:11:31.882Z,9.70
2022-08-30T00:13:58.309Z,10.13
2022-08-30T00:16:25.626Z,11.77
2022-08-30T00:18:52.381Z,11.10
2022-08-30T00:21:19.368Z,9.55
2022-08-30T00:23:45.944Z,10.18
2022-08-30T00:26:14.752Z,11.52
2022-08-30T00:28:41.472Z,10.63
2022-08-30T00:31:08.236Z,8.95
2022-08-30T00:33:43.845Z,17.27
2022-08-30T00:36:10.773Z,10.43
2022-08-30T00:38:37.207Z,9.30
2022-08-30T00:41:03.688Z,9.40
2022-08-30T00:43:32.605Z,12.90
2022-08-30T00:45:59.009Z,12.90
2022-08-30T00:48:25.701Z,11.88
2022-08-30T00:50:55.965Z,12.48
2022-08-30T00:53:30.091Z,10.55
2022-08-30T00:55:59.322Z,12.55
2022-08-30T00:58:31.807Z,9.52
2022-08-30T01:01:00.422Z,12.57
2022-08-30T01:03:28.028Z,11.55
2022-08-30T01:05:56.206Z,9.23
2022-08-30T01:08:22.822Z,12.73
2022-08-30T01:10:53.888Z,9.25
2022-08-30T01:13:23.766Z,11.27
2022-08-30T01:15:50.977Z,14.43
2022-08-30T01:18:18.940Z,12.00
2022-08-30T01:21:21.086Z,10.30
2022-08-30T01:23:50.819Z,9.90
2022-08-30T01:26:22.020Z,11.30
2022-08-30T01:28:53.039Z,22.55
2022-08-30T01:31:19.489Z,10.02
2022-08-30T01:33:46.288Z,9.00
2022-08-30T01:36:14.607Z,10.00
2022-08-30T01:38:53.551Z,11.23
2022-08-30T01:41:29.277Z,10.75
2022-08-30T01:43:59.623Z,13.75
2022-08-30T01:46:31.261Z,11.88
2022-08-30T01:48:58.489Z,11.32
2022-08-30T01:51:27.360Z,12.68
2022-08-30T01:53:54.793Z,12.77
2022-08-30T01:56:22.392Z,12.48
2022-08-30T01:58:48.922Z,13.52
2022-08-30T02:01:18.311Z,13.10
2022-08-30T02:03:46.786Z,11.10
2022-08-30T02:06:17.069Z,15.55
2022-08-30T02:08:44.316Z,13.65
2022-08-30T02:11:14.062Z,10.23
2022-08-30T02:13:42.263Z,10.52
2022-08-30T02:16:12.069Z,14.02
2022-08-30T02:18:39.400Z,16.40
2022-08-30T02:21:07.400Z,13.60
2022-08-30T02:23:33.929Z,10.20
2022-08-30T02:26:00.390Z,14.50
2022-08-30T02:28:27.171Z,9.13
2022-08-30T02:30:54.130Z,15.35
2022-08-30T02:33:20.753Z,11.40
2022-08-30T02:35:47.386Z,11.02
2022-08-30T02:38:19.998Z,11.13
2022-08-30T02:40:47.361Z,11.88
2022-08-30T02:43:13.903Z,14.38
2022-08-30T02:45:40.688Z,12.32
2022-08-30T02:48:07.612Z,10.30
2022-08-30T02:50:34.005Z,11.98
2022-08-30T02:53:00.723Z,11.73
2022-08-30T02:55:27.107Z,8.95
2022-08-30T02:57:54.905Z,10.98
2022-08-30T03:00:21.875Z,13.57
2022-08-30T03:02:48.385Z,12.55
2022-08-30T03:05:16.480Z,14.60
2022-08-30T03:07:43.757Z,13.00
2022-08-30T03:10:11.650Z,11.13
2022-08-30T03:12:40.974Z,16.75
2022-08-30T03:15:09.697Z,11.95
2022-08-30T03:17:36.627Z,14.00
2022-08-30T03:20:04.145Z,14.57
2022-08-30T03:22:30.630Z,13.32
2022-08-30T03:24:57.180Z,12.60
2022-08-30T03:27:24.898Z,16.80
2022-08-30T03:29:51.620Z,13.88
2022-08-30T03:32:19.163Z,11.60
2022-08-30T03:34:45.869Z,11.55
2022-08-30T03:37:14.530Z,13.80
2022-08-30T03:39:41.414Z,13.23
2022-08-30T03:42:08.180Z,12.38
2022-08-30T03:44:35.471Z,16.95
2022-08-30T03:47:04.060Z,13.32
2022-08-30T03:49:30.987Z,13.90
2022-08-30T03:51:57.471Z,12.18
2022-08-30T03:54:24.833Z,10.32
2022-08-30T03:56:51.934Z,11.52
2022-08-30T03:59:18.543Z,9.98
2022-08-30T04:01:45.282Z,13.68
2022-08-30T04:04:12.072Z,13.68
2022-08-30T04:06:38.493Z,12.63
2022-08-30T04:09:05.143Z,11.70
2022-08-30T04:11:32.241Z,11.77
2022-08-30T04:13:58.836Z,11.85
2022-08-30T04:16:26.380Z,14.45
2022-08-30T04:18:53.227Z,14.43
2022-08-30T04:21:20.458Z,15.07
2022-08-30T04:23:48.514Z,12.75
2022-08-30T04:26:14.985Z,13.07
2022-08-30T04:28:41.613Z,12.15
2022-08-30T04:31:15.330Z,14.43
2022-08-30T04:33:42.674Z,11.82
2022-08-30T04:36:10.280Z,12.32
2022-08-30T04:38:37.838Z,12.18
2022-08-30T04:41:13.663Z,11.75
2022-08-30T04:43:40.183Z,14.27
2022-08-30T04:46:08.767Z,13.77
2022-08-30T04:48:38.107Z,13.98
2022-08-30T04:51:06.662Z,14.65
2022-08-30T04:53:33.451Z,12.90
2022-08-30T04:56:05.213Z,13.25
2022-08-30T04:58:31.663Z,13.13
2022-08-30T05:00:58.147Z,18.63
2022-08-30T05:03:24.558Z,12.70
2022-08-30T05:05:54.949Z,13.20
2022-08-30T05:08:24.733Z,16.17
2022-08-30T05:10:52.397Z,12.95
2022-08-30T05:13:20.692Z,18.40
2022-08-30T05:15:50.946Z,11.88
2022-08-30T05:18:20.433Z,13.98
2022-08-30T05:20:47.009Z,15.68
2022-08-30T05:23:13.675Z,12.00
2022-08-30T05:25:42.472Z,12.02
2022-08-30T05:28:09.384Z,13.20
2022-08-30T05:30:37.189Z,16.60
2022-08-30T05:33:04.108Z,13.77
2022-08-30T05:35:30.458Z,15.00
2022-08-30T05:37:58.217Z,18.70
2022-08-30T05:40:24.807Z,19.35
2022-08-30T05:42:51.276Z,18.73
2022-08-30T05:45:17.804Z,11.40
2022-08-30T05:47:44.656Z,13.65
2022-08-30T05:50:11.286Z,17.83
2022-08-30T05:52:39.702Z,14.55
2022-08-30T05:55:08.800Z,15.77
2022-08-30T05:57:40.990Z,15.32
2022-08-30T06:00:14.531Z,12.57
2022-08-30T06:02:42.406Z,14.43
2022-08-30T06:05:14.374Z,15.60
2022-08-30T06:07:41.806Z,11.90
2022-08-30T06:10:08.827Z,15.65
2022-08-30T06:12:35.663Z,16.15
2022-08-30T06:15:02.264Z,15.52
2022-08-30T06:17:28.734Z,12.30
2022-08-30T06:19:55.185Z,13.82
2022-08-30T06:22:21.595Z,11.75
2022-08-30T06:25:01.913Z,14.85
2022-08-30T06:27:28.336Z,13.25
2022-08-30T06:29:54.842Z,13.48
2022-08-30T06:32:21.219Z,12.52
2022-08-30T06:34:47.765Z,11.73
2022-08-30T06:37:24.613Z,13.02
2022-08-30T06:39:57.570Z,11.27
2022-08-30T06:42:24.679Z,12.13
2022-08-30T06:44:55.333Z,12.25
2022-08-30T06:47:21.785Z,10.70
2022-08-30T06:49:48.160Z,13.85
2022-08-30T06:52:14.632Z,11.93
2022-08-30T06:54:41.307Z,12.02
2022-08-30T06:57:08.058Z,12.95
2022-08-30T06:59:34.508Z,12.18
2022-08-30T07:02:01.071Z,12.75
2022-08-30T07:04:27.509Z,12.02
2022-08-30T07:06:54.152Z,12.63
2022-08-30T07:09:22.736Z,13.35
2022-08-30T07:11:50.011Z,16.35
2022-08-30T07:14:16.558Z,12.43
2022-08-30T07:16:44.107Z,12.43
2022-08-30T07:19:20.411Z,12.73
2022-08-30T07:21:48.161Z,10.10
2022-08-30T07:24:16.187Z,11.48
2022-08-30T07:26:45.228Z,10.55
2022-08-30T07:29:11.644Z,12.88
2022-08-30T07:31:38.116Z,13.10
2022-08-30T07:34:06.149Z,11.43
2022-08-30T07:36:35.952Z,13.90
2022-08-30T07:39:04.636Z,14.13
2022-08-30T07:41:38.005Z,8.50
2022-08-30T07:44:05.971Z,11.30
2022-08-30T07:46:32.459Z,10.23
2022-08-30T07:49:00.492Z,9.90
2022-08-30T07:51:28.786Z,7.95
2022-08-30T07:54:00.691Z,9.30
2022-08-30T07:56:27.463Z,9.50
2022-08-30T07:58:55.417Z,6.93
2022-08-30T08:01:24.884Z,8.88
2022-08-30T08:03:51.539Z,8.63
2022-08-30T08:06:20.501Z,8.02
2022-08-30T08:08:46.918Z,7.88
2022-08-30T08:11:17.518Z,9.18
2022-08-30T08:13:53.705Z,7.45
2022-08-30T08:16:22.693Z,9.30
2022-08-30T08:18:49.417Z,7.13
2022-08-30T08:21:16.063Z,9.00
2022-08-30T08:23:42.591Z,6.93
2022-08-30T08:26:10.473Z,15.48
2022-08-30T08:28:37.098Z,10.32
2022-08-30T08:31:06.079Z,10.35
2022-08-30T08:33:32.572Z,6.55
2022-08-30T08:35:59.049Z,6.82
2022-08-30T08:38:25.468Z,9.82
2022-08-30T08:41:03.586Z,8.23
2022-08-30T08:43:34.684Z,6.22
2022-08-30T08:46:19.901Z,6.70
2022-08-30T08:49:00.067Z,6.63
2022-08-30T08:51:31.871Z,6.88
2022-08-30T08:54:05.703Z,8.15
2022-08-30T08:56:33.089Z,7.05
2022-08-30T08:59:02.155Z,6.90
2022-08-30T09:01:30.957Z,5.55
2022-08-30T09:04:01.744Z,10.82
2022-08-30T09:06:45.053Z,6.57
2022-08-30T09:09:13.029Z,9.05
2022-08-30T09:11:41.913Z,7.68
2022-08-30T09:14:17.199Z,6.13
2022-08-30T09:16:52.610Z,8.40
2022-08-30T09:19:39.686Z,6.85
2022-08-30T09:22:26.724Z,7.32
2022-08-30T09:25:13.164Z,10.60
2022-08-30T09:27:45.874Z,6.53
2022-08-30T09:30:20.872Z,7.50
2022-08-30T09:33:01.915Z,6.78
2022-08-30T09:35:49.257Z,8.20
2022-08-30T09:38:31.451Z,6.25
2022-08-30T09:41:01.501Z,6.07
2022-08-30T09:43:30.838Z,8.82
2022-08-30T09:46:00.431Z,7.63
2022-08-30T09:48:39.513Z,7.30
2022-08-30T09:51:14.563Z,8.65
2022-08-30T09:54:17.346Z,6.00
2022-08-30T09:57:00.634Z,6.43
2022-08-30T09:59:43.303Z,6.50
2022-08-30T10:02:33.667Z,7.55
2022-08-30T10:05:25.469Z,6.30
2022-08-30T10:08:29.309Z,11.48
2022-08-30T10:11:14.294Z,5.70
2022-08-30T10:13:54.335Z,9.52
2022-08-30T10:16:40.783Z,7.80
2022-08-30T10:19:41.266Z,6.05
2022-08-30T10:22:19.736Z,6.22
2022-08-30T10:24:51.809Z,5.07
2022-08-30T10:27:27.164Z,6.65
2022-08-30T10:30:16.877Z,6.80
2022-08-30T10:33:02.107Z,8.45
2022-08-30T10:35:38.578Z,4.97
2022-08-30T10:38:20.464Z,5.60
2022-08-30T10:40:54.819Z,6.80
2022-08-30T10:43:51.061Z,5.35
2022-08-30T10:46:48.087Z,9.93
2022-08-30T10:49:20.113Z,11.15
2022-08-30T10:51:55.347Z,4.78
2022-08-30T10:54:57.573Z,5.10
2022-08-30T10:57:24.604Z,5.32
2022-08-30T11:00:02.788Z,6.65
2022-08-30T11:03:09.419Z,7.75
2022-08-30T11:06:14.910Z,6.15
2022-08-30T11:09:24.880Z,5.35
2022-08-30T11:12:20.951Z,6.28
2022-08-30T11:14:48.144Z,5.25
2022-08-30T11:17:39.089Z,8.70
2022-08-30T11:20:22.972Z,4.95
2022-08-30T11:23:29.043Z,5.03
2022-08-30T11:26:07.754Z,5.30
2022-08-30T11:28:41.434Z,6.68
2022-08-30T11:31:11.217Z,5.15
2022-08-30T11:33:51.523Z,5.82
2022-08-30T11:36:37.411Z,4.95
2022-08-30T11:39:53.185Z,5.60
2022-08-30T11:42:19.950Z,5.32
2022-08-30T11:44:46.713Z,5.50
2022-08-30T11:47:35.276Z,6.93
2022-08-30T11:50:15.481Z,5.57
2022-08-30T11:53:23.437Z,7.57
2022-08-30T11:56:06.941Z,4.75
2022-08-30T11:58:43.891Z,6.15
2022-08-30T12:01:49.927Z,6.22
2022-08-30T12:04:18.024Z,8.23
2022-08-30T12:06:52.413Z,4.65
2022-08-30T12:09:18.742Z,4.80
2022-08-30T12:12:03.996Z,4.40
2022-08-30T12:14:40.991Z,5.38
2022-08-30T12:17:19.667Z,5.53
2022-08-30T12:19:50.302Z,4.25
2022-08-30T12:22:18.906Z,6.43
2022-08-30T12:24:51.822Z,5.18
2022-08-30T12:27:32.598Z,6.25
2022-08-30T12:30:07.425Z,4.75
2022-08-30T12:32:42.478Z,4.38
2022-08-30T12:35:21.858Z,5.15
2022-08-30T12:38:01.599Z,6.65
2022-08-30T12:40:30.527Z,4.03
2022-08-30T12:43:03.856Z,6.72
2022-08-30T12:45:41.084Z,4.40
2022-08-30T12:48:15.727Z,5.40
2022-08-30T12:50:57.648Z,5.18
2022-08-30T12:53:44.633Z,5.18
2022-08-30T12:56:14.965Z,5.07
2022-08-30T12:58:47.851Z,7.78
2022-08-30T13:01:17.293Z,5.10
2022-08-30T13:03:55.558Z,4.95
2022-08-30T13:06:51.606Z,5.45
2022-08-30T13:09:43.573Z,4.97
2022-08-30T13:12:25.153Z,4.68
2022-08-30T13:14:53.322Z,5.07
2022-08-30T13:17:25.396Z,4.30
2022-08-30T13:20:24.287Z,4.60
2022-08-30T13:23:11.033Z,6.38
2022-08-30T13:25:39.574Z,6.10
2022-08-30T13:28:07.445Z,5.63
2022-08-30T13:30:36.922Z,5.60
2022-08-30T13:33:04.190Z,4.80
2022-08-30T13:35:32.191Z,5.68
2022-08-30T13:38:01.758Z,5.70
2022-08-30T13:40:28.381Z,6.05
2022-08-30T13:42:54.875Z,7.07
2022-08-30T13:48:13.904Z,4.75
2022-08-30T13:50:41.953Z,6.80
2022-08-30T13:53:09.305Z,4.35
2022-08-30T13:55:38.354Z,6.05
2022-08-30T13:58:05.608Z,5.28
2022-08-30T14:00:36.632Z,6.05
2022-08-30T14:03:04.686Z,4.45
2022-08-30T14:06:04.884Z,4.63
2022-08-30T14:11:18.349Z,4.57
2022-08-30T14:16:34.562Z,6.70
2022-08-30T14:19:01.839Z,5.78
2022-08-30T14:21:29.153Z,4.32
2022-08-30T14:23:58.029Z,4.38
2022-08-30T14:26:33.815Z,6.30
2022-08-30T14:29:05.726Z,5.28
2022-08-30T14:31:36.028Z,5.00
2022-08-30T14:34:05.745Z,6.00
2022-08-30T14:36:33.749Z,5.75
2022-08-30T14:39:00.786Z,5.47
2022-08-30T14:41:27.427Z,4.95
2022-08-30T14:43:54.114Z,4.40
2022-08-30T14:46:20.990Z,5.28
2022-08-30T14:48:50.385Z,6.28
2022-08-30T14:51:19.518Z,7.07
2022-08-30T14:53:47.776Z,5.93
2022-08-30T14:56:18.503Z,4.68
2022-08-30T14:58:48.186Z,5.20
2022-08-30T15:01:15.588Z,8.77
2022-08-30T15:03:42.975Z,4.68
2022-08-30T15:06:10.881Z,5.40
2022-08-30T15:08:38.075Z,5.13
2022-08-30T15:11:11.404Z,5.75
2022-08-30T15:13:38.777Z,5.18
2022-08-30T15:16:19.834Z,5.75
2022-08-30T15:18:47.061Z,4.63
2022-08-30T15:21:14.423Z,5.57
2022-08-30T15:23:41.574Z,5.03
2022-08-30T15:26:09.454Z,4.50
2022-08-30T15:28:36.747Z,5.20
2022-08-30T15:31:08.590Z,5.85
2022-08-30T15:33:35.496Z,5.00
2022-08-30T15:36:07.783Z,5.03
2022-08-30T15:38:35.183Z,4.75
2022-08-30T15:41:06.964Z,6.47
2022-08-30T15:43:34.811Z,4.95
2022-08-30T15:46:16.800Z,4.93
2022-08-30T15:48:46.333Z,6.90
2022-08-30T15:51:13.135Z,4.88
2022-08-30T15:53:41.316Z,5.10
2022-08-30T15:56:08.021Z,5.20
2022-08-30T15:58:34.862Z,6.25
2022-08-30T16:01:02.871Z,5.50
2022-08-30T16:03:29.528Z,7.15
2022-08-30T16:05:56.370Z,5.82
2022-08-30T16:08:23.280Z,5.38
2022-08-30T16:10:51.837Z,5.47
2022-08-30T16:13:20.313Z,6.85
2022-08-30T16:15:46.769Z,5.13
2022-08-30T16:18:15.001Z,4.95
2022-08-30T16:20:45.182Z,5.97
2022-08-30T16:25:40.005Z,5.50
2022-08-30T16:28:09.534Z,5.95
2022-08-30T16:30:36.278Z,5.47
2022-08-30T16:33:06.077Z,5.55
2022-08-30T16:35:33.793Z,5.90
2022-08-30T16:38:06.205Z,9.63
2022-08-30T16:40:35.199Z,5.90
2022-08-30T16:43:04.189Z,8.15
2022-08-30T16:45:37.269Z,6.05
2022-08-30T16:48:04.939Z,4.72
2022-08-30T16:50:34.937Z,6.45
2022-08-30T16:53:04.760Z,5.67
2022-08-30T16:55:34.665Z,5.45
2022-08-30T16:58:01.398Z,6.85
2022-08-30T17:00:28.169Z,5.10
2022-08-30T17:02:55.270Z,6.35
2022-08-30T17:05:23.108Z,5.63
2022-08-30T17:07:49.755Z,7.28
2022-08-30T17:10:17.863Z,5.05
2022-08-30T17:12:49.629Z,6.85
2022-08-30T17:15:16.094Z,5.93
2022-08-30T17:17:43.124Z,5.75
2022-08-30T17:20:10.512Z,6.13
2022-08-30T17:22:36.969Z,6.63
2022-08-30T17:25:03.965Z,5.82
2022-08-30T17:27:32.984Z,8.30
2022-08-30T17:29:59.517Z,5.40
2022-08-30T17:32:26.130Z,7.07
2022-08-30T17:34:56.092Z,5.25
2022-08-30T17:37:22.598Z,6.22
2022-08-30T17:39:50.238Z,7.00
2022-08-30T17:42:16.739Z,6.13
2022-08-30T17:44:43.439Z,9.20
2022-08-30T17:47:10.337Z,5.55
2022-08-30T17:49:37.446Z,5.88
2022-08-30T17:52:05.337Z,5.30
2022-08-30T17:54:34.562Z,7.72
2022-08-30T17:57:10.112Z,7.22
2022-08-30T17:59:37.849Z,6.20
2022-08-30T18:02:06.090Z,5.75
2022-08-30T18:04:33.198Z,7.22
2022-08-30T18:06:59.513Z,6.97
2022-08-30T18:09:27.791Z,5.68
2022-08-30T18:11:58.384Z,5.07
2022-08-30T18:14:27.061Z,5.15
2022-08-30T18:16:55.015Z,5.75
2022-08-30T18:19:29.379Z,5.45
2022-08-30T18:21:56.575Z,7.30
2022-08-30T18:24:26.087Z,4.97
2022-08-30T18:26:53.165Z,5.32
2022-08-30T18:29:29.130Z,4.93
2022-08-30T18:32:02.530Z,7.25
2022-08-30T18:34:30.035Z,6.15
2022-08-30T18:36:57.024Z,5.25
2022-08-30T18:39:23.952Z,5.75
2022-08-30T18:41:50.906Z,5.93
2022-08-30T18:47:05.658Z,4.82
2022-08-30T18:49:54.079Z,4.75
2022-08-30T18:52:20.515Z,5.77
2022-08-30T18:54:52.665Z,5.28
2022-08-30T18:57:20.073Z,4.72
2022-08-30T18:59:47.458Z,6.25
2022-08-30T19:02:17.501Z,5.65
2022-08-30T19:04:45.194Z,5.43
2022-08-30T19:10:01.222Z,4.53
2022-08-30T19:12:28.346Z,9.80
2022-08-30T19:14:56.228Z,6.60
2022-08-30T19:17:23.054Z,6.35
2022-08-30T19:19:52.281Z,6.55
2022-08-30T19:22:26.617Z,6.13
2022-08-30T19:24:55.183Z,4.30
2022-08-30T19:27:37.299Z,4.32
2022-08-30T19:30:08.082Z,7.15
2022-08-30T19:32:35.014Z,4.22
2022-08-30T19:35:01.455Z,3.83
2022-08-30T19:37:29.640Z,4.82
2022-08-30T19:39:56.438Z,4.85
2022-08-30T19:42:27.035Z,7.05
2022-08-30T19:44:53.490Z,4.50
2022-08-30T19:47:20.007Z,7.00
2022-08-30T19:49:46.376Z,5.90
2022-08-30T19:52:12.939Z,5.15
2022-08-30T19:54:39.571Z,4.60
2022-08-30T19:57:09.526Z,4.50
2022-08-30T19:59:37.371Z,4.38
2022-08-30T20:02:05.192Z,4.47
2022-08-30T20:04:33.154Z,4.28
2022-08-30T20:07:00.216Z,6.68
2022-08-30T20:09:26.782Z,4.85
2022-08-30T20:11:55.139Z,4.72
2022-08-30T20:14:25.761Z,6.03
2022-08-30T20:16:52.512Z,6.55
2022-08-30T20:19:21.907Z,6.55
2022-08-30T20:21:55.687Z,6.03
2022-08-30T20:24:31.782Z,4.95
2022-08-30T20:24:32.973Z,7.22
2022-08-30T20:26:59.697Z,8.65
2022-08-30T20:29:28.611Z,5.78
2022-08-30T20:32:01.401Z,6.35
2022-08-30T20:34:29.302Z,8.38
2022-08-30T20:36:57.216Z,7.38
2022-08-30T20:39:24.594Z,6.93
2022-08-30T20:41:51.541Z,7.65
2022-08-30T20:44:22.950Z,7.30
2022-08-30T20:46:49.366Z,7.60
2022-08-30T20:49:16.349Z,10.00
2022-08-30T20:51:43.108Z,8.15
2022-08-30T20:54:09.567Z,6.63
2022-08-30T20:56:36.307Z,6.50
2022-08-30T20:59:04.556Z,10.32
2022-08-30T21:01:36.411Z,11.20
2022-08-30T21:04:05.957Z,8.80
2022-08-30T21:06:33.345Z,7.78
2022-08-30T21:08:59.827Z,8.35
2022-08-30T21:11:26.397Z,7.20
2022-08-30T21:13:55.778Z,6.90
2022-08-30T21:16:22.353Z,7.05
2022-08-30T21:18:49.038Z,12.23
2022-08-30T21:21:18.779Z,8.93
2022-08-30T21:23:45.202Z,7.20
2022-08-30T21:26:11.745Z,8.55
2022-08-30T21:28:39.714Z,7.20
2022-08-30T21:31:09.612Z,11.30
2022-08-30T21:33:37.476Z,7.40
2022-08-30T21:36:05.832Z,6.35
2022-08-30T21:38:32.434Z,5.57
2022-08-30T21:40:58.886Z,7.55
2022-08-30T21:43:26.564Z,8.13
2022-08-30T21:45:53.030Z,5.97
2022-08-30T21:48:19.661Z,9.10
2022-08-30T21:50:46.274Z,5.70
2022-08-30T21:53:15.431Z,6.65
2022-08-30T21:55:43.907Z,8.20
2022-08-30T21:58:10.820Z,10.88
2022-08-30T22:00:37.515Z,7.47
2022-08-30T22:03:04.602Z,8.15
2022-08-30T22:05:35.592Z,6.75
2022-08-30T22:08:02.141Z,7.07
2022-08-30T22:10:36.043Z,8.30
2022-08-30T22:13:02.432Z,6.60
2022-08-30T22:15:30.569Z,5.43
2022-08-30T22:17:59.130Z,6.03
2022-08-30T22:20:25.735Z,6.70
2022-08-30T22:22:56.902Z,6.38
2022-08-30T22:25:24.539Z,5.65
2022-08-30T22:27:50.998Z,6.95
2022-08-30T22:30:17.726Z,7.68
2022-08-30T22:32:44.332Z,5.65
2022-08-30T22:35:13.723Z,6.55
2022-08-30T22:40:16.078Z,8.07
2022-08-30T22:42:45.023Z,10.00
2022-08-30T22:45:12.313Z,11.27
2022-08-30T22:47:39.038Z,6.88
2022-08-30T22:50:06.097Z,8.60
2022-08-30T22:52:32.869Z,5.45
2022-08-30T22:54:59.713Z,8.65
2022-08-30T22:57:26.516Z,6.53
2022-08-30T22:59:52.927Z,5.60
2022-08-30T23:02:19.454Z,7.28
2022-08-30T23:04:46.017Z,6.15
2022-08-30T23:07:12.458Z,9.07
2022-08-30T23:09:41.114Z,6.43
2022-08-30T23:12:07.860Z,10.38
2022-08-30T23:14:37.049Z,7.38
2022-08-30T23:17:04.282Z,7.88
2022-08-30T23:19:30.759Z,6.97
2022-08-30T23:21:57.129Z,6.53
2022-08-30T23:24:23.602Z,5.75
2022-08-30T23:26:50.082Z,7.93
2022-08-30T23:29:16.970Z,7.47
2022-08-30T23:31:43.389Z,8.25
2022-08-30T23:34:13.133Z,9.27
2022-08-30T23:36:39.789Z,8.52
2022-08-30T23:39:06.832Z,11.07
2022-08-30T23:41:34.018Z,7.13
2022-08-30T23:44:02.868Z,9.02
2022-08-30T23:46:29.362Z,6.05
2022-08-30T23:48:55.716Z,6.85
2022-08-30T23:51:22.627Z,6.07
2022-08-30T23:53:49.644Z,6.40
2022-08-30T23:56:16.046Z,6.88
2022-08-30T23:58:42.483Z,7.15
